createdAt,value
2018-05-04T00:00:59.995Z,81.90
2018-05-04T00:03:27.545Z,81.90
2018-05-04T00:05:55.105Z,81.50
2018-05-04T00:08:22.597Z,81.00
2018-05-04T00:10:50.112Z,80.80
2018-05-04T00:13:17.623Z,80.40
2018-05-04T00:15:45.164Z,80.50
2018-05-04T00:18:12.661Z,80.10
2018-05-04T00:20:40.978Z,80.00
2018-05-04T00:23:08.465Z,80.00
2018-05-04T00:25:35.997Z,79.80
2018-05-04T00:28:03.543Z,80.00
2018-05-04T00:30:31.065Z,79.80
2018-05-04T00:32:59.370Z,79.00
2018-05-04T00:35:26.925Z,79.00
2018-05-04T00:37:54.429Z,78.60
2018-05-04T00:40:21.974Z,78.60
2018-05-04T00:42:49.532Z,78.40
2018-05-04T00:45:17.041Z,79.10
2018-05-04T00:47:45.299Z,79.40
2018-05-04T00:50:12.834Z,79.30
2018-05-04T00:52:40.329Z,79.00
2018-05-04T00:55:08.622Z,79.40
2018-05-04T00:57:36.930Z,79.00
2018-05-04T01:00:04.430Z,79.00
2018-05-04T01:02:31.921Z,79.40
2018-05-04T01:04:59.462Z,79.90
2018-05-04T01:07:27.738Z,79.80
2018-05-04T01:09:56.036Z,79.80
2018-05-04T01:12:24.340Z,80.30
2018-05-04T01:14:51.867Z,79.70
2018-05-04T01:17:19.382Z,79.70
2018-05-04T01:19:46.928Z,79.20
2018-05-04T01:22:14.417Z,79.80
2018-05-04T01:24:42.712Z,79.70
2018-05-04T01:27:10.226Z,79.70
2018-05-04T01:29:37.714Z,79.10
2018-05-04T01:32:05.249Z,79.40
2018-05-04T01:34:32.782Z,79.40
2018-05-04T01:37:00.277Z,80.10
2018-05-04T01:39:27.801Z,79.50
2018-05-04T01:41:55.309Z,80.10
2018-05-04T01:44:23.597Z,80.60
2018-05-04T01:46:51.857Z,81.10
2018-05-04T01:49:19.404Z,81.10
2018-05-04T01:51:46.906Z,80.90
2018-05-04T01:54:14.437Z,81.20
2018-05-04T01:56:42.730Z,80.80
2018-05-04T01:59:11.024Z,81.10
2018-05-04T02:01:38.525Z,81.10
2018-05-04T02:04:06.066Z,81.60
2018-05-04T02:06:33.582Z,81.70
2018-05-04T02:09:01.845Z,82.10
2018-05-04T02:11:30.135Z,82.40
2018-05-04T02:13:57.679Z,82.30
2018-05-04T02:16:25.948Z,82.50
2018-05-04T02:18:53.472Z,82.50
2018-05-04T02:21:21.042Z,82.80
2018-05-04T02:23:48.546Z,83.00
2018-05-04T02:26:16.801Z,83.00
2018-05-04T02:28:44.354Z,83.00
2018-05-04T02:31:12.678Z,83.00
2018-05-04T02:33:40.192Z,83.00
2018-05-04T02:36:08.506Z,83.60
2018-05-04T02:38:36.033Z,83.60
2018-05-04T02:41:03.535Z,83.40
2018-05-04T02:43:31.062Z,83.30
2018-05-04T02:45:59.354Z,82.80
2018-05-04T02:48:26.876Z,82.80
2018-05-04T02:50:54.410Z,83.10
2018-05-04T02:53:21.898Z,84.00
2018-05-04T02:55:49.435Z,84.60
2018-05-04T02:58:16.937Z,84.50
2018-05-04T03:00:45.234Z,84.60
2018-05-04T03:03:12.767Z,84.60
2018-05-04T03:05:41.062Z,84.40
2018-05-04T03:08:08.596Z,84.40
2018-05-04T03:10:36.878Z,85.00
2018-05-04T03:13:05.154Z,85.20
2018-05-04T03:15:33.464Z,85.70
2018-05-04T03:18:00.982Z,85.70
2018-05-04T03:20:29.281Z,86.20
2018-05-04T03:22:56.790Z,86.10
2018-05-04T03:25:24.316Z,85.90
2018-05-04T03:27:52.630Z,86.30
2018-05-04T03:30:20.129Z,86.20
2018-05-04T03:32:48.428Z,86.80
2018-05-04T03:35:15.942Z,86.70
2018-05-04T03:37:43.486Z,87.20
2018-05-04T03:40:10.991Z,87.30
2018-05-04T03:42:39.374Z,87.90
2018-05-04T03:45:06.894Z,88.00
2018-05-04T03:47:35.159Z,88.10
2018-05-04T03:50:02.690Z,88.00
2018-05-04T03:52:30.204Z,88.30
2018-05-04T03:54:58.495Z,89.00
2018-05-04T03:57:38.067Z,88.90
2018-05-04T04:00:17.420Z,88.90
2018-05-04T04:02:56.869Z,88.40
2018-05-04T04:05:24.393Z,88.10
2018-05-04T04:07:52.712Z,88.80
2018-05-04T04:10:20.204Z,88.80
2018-05-04T04:12:47.699Z,89.50
2018-05-04T04:15:15.221Z,89.90
2018-05-04T04:17:42.741Z,89.90
2018-05-04T04:20:10.265Z,89.50
2018-05-04T04:22:37.766Z,89.50
2018-05-04T04:25:05.320Z,89.10
2018-05-04T04:27:32.818Z,89.90
2018-05-04T04:30:00.355Z,90.10
2018-05-04T04:32:28.655Z,90.10
2018-05-04T04:34:56.198Z,90.10
2018-05-04T04:37:24.452Z,90.10
2018-05-04T04:39:51.941Z,90.00
2018-05-04T04:42:19.486Z,90.20
2018-05-04T04:44:47.749Z,89.60
2018-05-04T04:47:15.297Z,89.50
2018-05-04T04:49:42.806Z,89.50
2018-05-04T04:52:10.315Z,89.20
2018-05-04T04:54:37.854Z,89.20
2018-05-04T04:57:05.359Z,88.80
2018-05-04T04:59:32.878Z,89.50
2018-05-04T05:02:00.398Z,89.80
2018-05-04T05:04:27.989Z,89.00
2018-05-04T05:06:55.505Z,89.20
2018-05-04T05:09:23.018Z,88.70
2018-05-04T05:11:50.559Z,88.50
2018-05-04T05:14:18.113Z,88.50
2018-05-04T05:16:45.622Z,88.80
2018-05-04T05:19:13.895Z,88.30
2018-05-04T05:21:42.188Z,88.30
2018-05-04T05:24:09.719Z,88.40
2018-05-04T05:26:37.220Z,88.30
2018-05-04T05:29:04.786Z,88.50
2018-05-04T05:31:32.295Z,88.30
2018-05-04T05:33:59.802Z,87.90
2018-05-04T05:36:27.333Z,88.70
2018-05-04T05:38:55.587Z,88.00
2018-05-04T05:41:23.086Z,87.80
2018-05-04T05:43:50.631Z,88.30
2018-05-04T05:46:18.885Z,86.90
2018-05-04T05:48:47.207Z,87.50
2018-05-04T05:51:14.823Z,87.50
2018-05-04T05:53:42.367Z,87.30
2018-05-04T05:56:09.917Z,86.70
2018-05-04T05:58:37.435Z,86.10
2018-05-04T06:01:04.955Z,86.10
2018-05-04T06:03:32.477Z,85.50
2018-05-04T06:06:00.075Z,86.10
2018-05-04T06:08:27.579Z,86.30
2018-05-04T06:10:55.075Z,85.90
2018-05-04T06:13:22.620Z,86.10
2018-05-04T06:15:50.130Z,85.70
2018-05-04T06:18:18.456Z,85.70
2018-05-04T06:20:46.001Z,85.70
2018-05-04T06:23:13.479Z,85.70
2018-05-04T06:25:41.013Z,85.40
2018-05-04T06:28:08.517Z,85.70
2018-05-04T06:30:36.086Z,85.90
2018-05-04T06:33:04.376Z,85.10
2018-05-04T06:35:31.893Z,85.10
2018-05-04T06:37:59.421Z,85.20
2018-05-04T06:40:26.955Z,85.40
2018-05-04T06:42:54.496Z,85.70
2018-05-04T06:45:22.761Z,84.20
2018-05-04T06:47:50.279Z,84.10
2018-05-04T06:50:17.837Z,85.30
2018-05-04T06:52:45.378Z,84.40
2018-05-04T06:55:12.907Z,83.80
2018-05-04T06:57:41.230Z,85.00
2018-05-04T07:00:08.757Z,85.00
2018-05-04T07:02:37.037Z,84.60
2018-05-04T07:05:05.351Z,85.30
2018-05-04T07:07:32.869Z,85.20
2018-05-04T07:10:01.170Z,84.90
2018-05-04T07:12:28.705Z,84.90
2018-05-04T07:14:56.980Z,84.90
2018-05-04T07:17:25.289Z,84.00
2018-05-04T07:19:52.825Z,84.00
2018-05-04T07:22:21.146Z,84.10
2018-05-04T07:24:48.680Z,83.40
2018-05-04T07:27:16.184Z,83.60
2018-05-04T07:29:43.680Z,84.20
2018-05-04T07:32:11.230Z,83.40
2018-05-04T07:34:39.508Z,82.40
2018-05-04T07:37:07.813Z,83.10
2018-05-04T07:39:35.331Z,83.10
2018-05-04T07:42:03.589Z,82.10
2018-05-04T07:44:31.110Z,82.10
2018-05-04T07:46:58.648Z,82.50
2018-05-04T07:49:26.182Z,82.90
2018-05-04T07:51:54.479Z,81.90
2018-05-04T07:54:22.007Z,81.90
2018-05-04T07:56:49.525Z,82.00
2018-05-04T07:59:17.070Z,81.70
2018-05-04T08:01:44.602Z,81.90
2018-05-04T08:04:12.889Z,83.30
2018-05-04T08:06:40.469Z,83.30
2018-05-04T08:09:07.961Z,83.00
2018-05-04T08:11:35.506Z,81.80
2018-05-04T08:14:03.008Z,82.60
2018-05-04T08:16:31.301Z,81.90
2018-05-04T08:18:58.793Z,81.90
2018-05-04T08:21:26.354Z,82.60
2018-05-04T08:23:53.871Z,82.20
2018-05-04T08:26:22.174Z,80.90
2018-05-04T08:28:49.696Z,80.90
2018-05-04T08:31:17.981Z,82.00
2018-05-04T08:33:45.501Z,81.90
2018-05-04T08:36:13.029Z,81.80
2018-05-04T08:38:40.530Z,80.70
2018-05-04T08:41:08.854Z,81.70
2018-05-04T08:43:36.372Z,81.70
2018-05-04T08:46:04.649Z,80.90
2018-05-04T08:48:32.939Z,80.00
2018-05-04T08:51:01.283Z,79.80
2018-05-04T08:53:29.506Z,79.60
2018-05-04T08:55:57.996Z,79.50
2018-05-04T08:58:29.772Z,79.90
2018-05-04T09:00:57.330Z,79.80
2018-05-04T09:03:24.833Z,80.10
2018-05-04T09:05:52.375Z,79.70
2018-05-04T09:08:19.887Z,81.80
2018-05-04T09:10:47.425Z,79.60
2018-05-04T09:13:15.681Z,79.20
2018-05-04T09:15:43.558Z,79.10
2018-05-04T09:18:11.836Z,78.20
2018-05-04T09:20:40.150Z,78.00
2018-05-04T09:23:07.685Z,78.00
2018-05-04T09:25:35.957Z,78.00
2018-05-04T09:28:04.257Z,78.60
2018-05-04T09:30:31.762Z,78.50
2018-05-04T09:32:59.284Z,79.60
2018-05-04T09:35:26.809Z,77.70
2018-05-04T09:37:55.118Z,76.90
2018-05-04T09:40:22.609Z,77.60
2018-05-04T09:42:51.004Z,77.40
2018-05-04T09:45:18.375Z,77.90
2018-05-04T09:47:46.636Z,75.90
2018-05-04T09:50:14.159Z,75.90
2018-05-04T09:52:41.644Z,78.30
2018-05-04T09:55:09.180Z,77.10
2018-05-04T09:57:36.705Z,77.40
2018-05-04T10:00:04.972Z,76.00
2018-05-04T10:02:33.275Z,75.90
2018-05-04T10:05:00.806Z,75.70
2018-05-04T10:07:29.071Z,74.90
2018-05-04T10:09:57.353Z,73.80
2018-05-04T10:12:25.649Z,75.30
2018-05-04T10:14:53.140Z,75.30
2018-05-04T10:17:20.660Z,73.90
2018-05-04T10:19:48.177Z,72.70
2018-05-04T10:22:15.726Z,72.00
2018-05-04T10:24:43.251Z,71.80
2018-05-04T10:27:10.760Z,72.70
2018-05-04T10:29:38.281Z,69.90
2018-05-04T10:32:05.833Z,72.10
2018-05-04T10:34:33.369Z,69.80
2018-05-04T10:37:01.668Z,69.50
2018-05-04T10:39:29.215Z,69.40
2018-05-04T10:41:56.712Z,70.20
2018-05-04T10:44:24.203Z,72.00
2018-05-04T10:46:52.529Z,69.00
2018-05-04T10:49:20.017Z,69.00
2018-05-04T10:51:47.541Z,68.50
2018-05-04T10:54:15.046Z,68.60
2018-05-04T10:56:42.570Z,69.40
2018-05-04T10:59:10.085Z,71.10
2018-05-04T11:01:38.351Z,69.20
2018-05-04T11:04:06.648Z,66.30
2018-05-04T11:06:34.129Z,66.20
2018-05-04T11:09:01.653Z,67.70
2018-05-04T11:11:29.150Z,66.20
2018-05-04T11:13:56.659Z,64.60
2018-05-04T11:16:25.022Z,64.00
2018-05-04T11:18:52.490Z,64.00
2018-05-04T11:21:20.043Z,64.60
2018-05-04T11:23:47.578Z,66.00
2018-05-04T11:26:15.147Z,63.60
2018-05-04T11:28:42.650Z,63.40
2018-05-04T11:31:10.211Z,63.20
2018-05-04T11:33:37.737Z,62.10
2018-05-04T11:36:05.232Z,65.00
2018-05-04T11:38:32.776Z,62.40
2018-05-04T11:41:01.063Z,63.80
2018-05-04T11:43:28.622Z,63.80
2018-05-04T11:45:56.113Z,61.30
2018-05-04T11:48:23.634Z,63.10
2018-05-04T11:50:51.917Z,60.00
2018-05-04T11:53:19.438Z,59.80
2018-05-04T11:55:46.958Z,59.20
2018-05-04T11:58:14.497Z,59.80
2018-05-04T12:00:42.003Z,59.30
2018-05-04T12:03:09.508Z,59.20
2018-05-04T12:05:37.057Z,56.30
2018-05-04T12:08:05.344Z,57.20
2018-05-04T12:10:32.874Z,57.30
2018-05-04T12:13:00.414Z,56.70
2018-05-04T12:15:27.973Z,55.80
2018-05-04T12:17:55.480Z,56.10
2018-05-04T12:20:23.004Z,56.50
2018-05-04T12:22:50.576Z,57.00
2018-05-04T12:25:18.090Z,55.80
2018-05-04T12:27:45.616Z,56.40
2018-05-04T12:30:13.158Z,57.70
2018-05-04T12:32:41.432Z,55.20
2018-05-04T12:35:09.709Z,57.20
2018-05-04T12:37:37.995Z,55.60
2018-05-04T12:40:06.252Z,54.50
2018-05-04T12:42:34.577Z,54.50
2018-05-04T12:45:02.093Z,54.80
2018-05-04T12:47:30.372Z,53.70
2018-05-04T12:49:58.668Z,54.00
2018-05-04T12:52:26.920Z,54.00
2018-05-04T12:54:55.240Z,54.10
2018-05-04T12:57:22.781Z,54.00
2018-05-04T12:59:50.322Z,54.80
2018-05-04T13:02:18.621Z,54.30
2018-05-04T13:04:46.153Z,54.30
2018-05-04T13:07:14.461Z,51.80
2018-05-04T13:09:42.008Z,51.70
2018-05-04T13:12:09.530Z,53.10
2018-05-04T13:14:37.055Z,53.40
2018-05-04T13:17:04.593Z,53.30
2018-05-04T13:19:32.108Z,51.80
2018-05-04T13:21:59.673Z,52.90
2018-05-04T13:24:27.178Z,55.50
2018-05-04T13:26:54.702Z,54.20
2018-05-04T13:29:22.982Z,52.30
2018-05-04T13:31:51.237Z,53.80
2018-05-04T13:34:18.755Z,53.50
2018-05-04T13:36:46.268Z,53.70
2018-05-04T13:39:14.554Z,52.80
2018-05-04T13:41:42.824Z,53.10
2018-05-04T13:44:11.116Z,54.10
2018-05-04T13:46:39.421Z,52.80
2018-05-04T13:49:06.947Z,52.80
2018-05-04T13:51:35.341Z,50.50
2018-05-04T13:54:02.760Z,50.50
2018-05-04T13:56:31.062Z,50.40
2018-05-04T13:58:59.374Z,50.10
2018-05-04T14:01:27.665Z,50.40
2018-05-04T14:03:55.269Z,50.40
2018-05-04T14:06:22.755Z,51.60
2018-05-04T14:08:50.266Z,52.10
2018-05-04T14:11:17.759Z,51.40
2018-05-04T14:13:45.316Z,49.90
2018-05-04T14:16:12.854Z,50.00
2018-05-04T14:18:41.167Z,52.20
2018-05-04T14:21:08.672Z,52.20
2018-05-04T14:23:36.197Z,50.80
2018-05-04T14:26:03.733Z,49.80
2018-05-04T14:28:31.258Z,50.40
2018-05-04T14:30:58.818Z,49.80
2018-05-04T14:33:26.345Z,51.30
2018-05-04T14:35:53.910Z,50.50
2018-05-04T14:38:21.408Z,50.50
2018-05-04T14:40:49.722Z,48.50
2018-05-04T14:43:17.261Z,48.40
2018-05-04T14:45:44.768Z,48.10
2018-05-04T14:48:12.301Z,47.90
2018-05-04T14:50:39.797Z,48.40
2018-05-04T14:53:08.112Z,49.20
2018-05-04T14:55:35.615Z,49.10
2018-05-04T14:58:03.158Z,49.50
2018-05-04T15:00:30.645Z,49.80
2018-05-04T15:02:58.216Z,49.10
2018-05-04T15:05:25.730Z,48.10
2018-05-04T15:07:53.262Z,49.80
2018-05-04T15:10:20.816Z,50.20
2018-05-04T15:12:49.096Z,49.30
2018-05-04T15:15:16.614Z,49.20
2018-05-04T15:17:44.178Z,49.10
2018-05-04T15:20:11.693Z,50.00
2018-05-04T15:22:39.208Z,50.10
2018-05-04T15:25:06.790Z,49.80
2018-05-04T15:27:39.150Z,50.70
2018-05-04T15:30:06.694Z,48.80
2018-05-04T15:32:34.215Z,49.10
2018-05-04T15:35:01.740Z,48.90
2018-05-04T15:37:29.244Z,48.70
2018-05-04T15:39:56.781Z,48.70
2018-05-04T15:42:24.293Z,47.70
2018-05-04T15:44:52.607Z,49.30
2018-05-04T15:47:20.137Z,49.30
2018-05-04T15:49:48.472Z,49.20
2018-05-04T15:52:15.966Z,49.20
2018-05-04T15:54:44.324Z,49.80
2018-05-04T15:57:11.801Z,49.80
2018-05-04T15:59:40.093Z,49.80
2018-05-04T16:02:07.645Z,49.70
2018-05-04T16:04:35.915Z,49.20
2018-05-04T16:07:04.228Z,49.60
2018-05-04T16:09:31.793Z,49.60
2018-05-04T16:11:59.309Z,49.00
2018-05-04T16:14:27.617Z,48.60
2018-05-04T16:16:55.133Z,48.60
2018-05-04T16:19:22.661Z,50.00
2018-05-04T16:21:50.182Z,50.70
2018-05-04T16:24:18.475Z,51.00
2018-05-04T16:26:46.743Z,52.60
2018-05-04T16:29:14.311Z,52.60
2018-05-04T16:31:41.868Z,52.10
2018-05-04T16:34:10.157Z,51.90
2018-05-04T16:36:37.685Z,51.90
2018-05-04T16:39:05.209Z,51.30
2018-05-04T16:41:32.849Z,51.50
2018-05-04T16:44:00.311Z,51.20
2018-05-04T16:46:33.634Z,51.10
2018-05-04T16:49:07.934Z,52.00
2018-05-04T16:51:36.319Z,51.60
2018-05-04T16:54:03.858Z,51.50
2018-05-04T16:56:31.374Z,51.50
2018-05-04T16:58:58.919Z,51.00
2018-05-04T17:01:27.221Z,52.00
2018-05-04T17:03:54.710Z,52.00
2018-05-04T17:06:22.216Z,51.40
2018-05-04T17:08:50.550Z,52.40
2018-05-04T17:11:18.077Z,52.40
2018-05-04T17:13:45.615Z,52.40
2018-05-04T17:16:13.872Z,52.90
2018-05-04T17:18:42.165Z,53.10
2018-05-04T17:21:10.458Z,53.10
2018-05-04T17:23:37.975Z,53.10
2018-05-04T17:26:05.517Z,52.70
2018-05-04T17:28:33.088Z,52.60
2018-05-04T17:31:00.576Z,53.50
2018-05-04T17:33:28.887Z,53.40
2018-05-04T17:35:56.402Z,53.40
2018-05-04T17:38:24.710Z,52.60
2018-05-04T17:40:52.204Z,52.50
2018-05-04T17:43:19.699Z,52.70
2018-05-04T17:45:47.993Z,52.70
2018-05-04T17:48:15.518Z,52.70
2018-05-04T17:50:43.053Z,52.50
2018-05-04T17:53:10.555Z,53.10
2018-05-04T17:55:38.839Z,53.00
2018-05-04T17:58:06.343Z,52.90
2018-05-04T18:00:33.842Z,53.00
2018-05-04T18:03:02.132Z,53.50
2018-05-04T18:05:30.437Z,53.60
2018-05-04T18:07:57.976Z,53.60
2018-05-04T18:10:25.501Z,54.30
2018-05-04T18:12:53.043Z,53.80
2018-05-04T18:15:20.538Z,54.60
2018-05-04T18:17:48.810Z,53.90
2018-05-04T18:20:17.078Z,54.20
2018-05-04T18:22:45.376Z,54.20
2018-05-04T18:25:12.902Z,54.20
2018-05-04T18:27:40.402Z,54.70
2018-05-04T18:30:07.936Z,54.30
2018-05-04T18:32:36.213Z,55.50
2018-05-04T18:35:04.501Z,55.10
2018-05-04T18:37:32.037Z,55.10
2018-05-04T18:40:00.306Z,56.40
2018-05-04T18:42:27.814Z,55.70
2018-05-04T18:44:55.345Z,56.00
2018-05-04T18:47:23.655Z,55.80
2018-05-04T18:49:51.217Z,55.80
2018-05-04T18:52:18.758Z,56.20
2018-05-04T18:54:46.313Z,56.00
2018-05-04T18:57:13.841Z,56.10
2018-05-04T18:59:41.377Z,56.00
2018-05-04T19:02:08.880Z,56.30
2018-05-04T19:04:37.213Z,56.10
2018-05-04T19:07:04.758Z,56.00
2018-05-04T19:09:32.314Z,56.40
2018-05-04T19:12:00.466Z,56.30
2018-05-04T19:14:28.145Z,56.50
2018-05-04T19:16:55.700Z,57.10
2018-05-04T19:19:23.266Z,56.90
2018-05-04T19:21:51.081Z,57.00
2018-05-04T19:24:19.736Z,57.60
2018-05-04T19:26:47.320Z,57.50
2018-05-04T19:29:15.024Z,58.60
2018-05-04T19:31:42.578Z,58.30
2018-05-04T19:34:10.444Z,58.30
2018-05-04T19:36:38.230Z,58.80
2018-05-04T19:39:06.577Z,59.10
2018-05-04T19:41:34.182Z,59.10
2018-05-04T19:44:01.694Z,59.20
2018-05-04T19:46:30.101Z,59.90
2018-05-04T19:48:57.762Z,59.90
2018-05-04T19:51:25.493Z,59.90
2018-05-04T19:53:53.063Z,60.00
2018-05-04T19:56:20.624Z,60.50
2018-05-04T19:58:48.447Z,59.80
2018-05-04T20:01:16.229Z,59.80
2018-05-04T20:03:44.747Z,59.90
2018-05-04T20:06:12.282Z,59.90
2018-05-04T20:08:41.785Z,60.90
2018-05-04T20:11:10.068Z,60.90
2018-05-04T20:13:37.685Z,60.80
2018-05-04T20:16:05.478Z,61.40
2018-05-04T20:18:33.083Z,61.20
2018-05-04T20:21:00.774Z,62.10
2018-05-04T20:23:28.326Z,62.10
2018-05-04T20:25:55.849Z,62.20
2018-05-04T20:28:23.467Z,62.50
2018-05-04T20:30:51.219Z,62.10
2018-05-04T20:33:18.765Z,62.30
2018-05-04T20:35:46.260Z,62.10
2018-05-04T20:38:14.571Z,62.40
2018-05-04T20:40:42.384Z,62.30
2018-05-04T20:43:10.227Z,62.60
2018-05-04T20:45:37.843Z,62.90
2018-05-04T20:48:06.138Z,64.10
2018-05-04T20:50:33.724Z,64.00
2018-05-04T20:53:01.745Z,63.50
2018-05-04T20:55:29.323Z,63.90
2018-05-04T20:57:56.853Z,64.10
2018-05-04T21:00:24.343Z,64.60
2018-05-04T21:02:52.461Z,66.50
2018-05-04T21:05:20.074Z,66.70
2018-05-04T21:07:47.709Z,66.10
2018-05-04T21:10:15.980Z,68.50
2018-05-04T21:12:43.603Z,68.50
2018-05-04T21:15:11.677Z,68.20
2018-05-04T21:17:39.278Z,69.00
2018-05-04T21:20:07.579Z,68.10
2018-05-04T21:22:35.115Z,68.10
2018-05-04T21:25:03.004Z,69.10
2018-05-04T21:27:30.635Z,69.00
2018-05-04T21:29:58.226Z,69.00
2018-05-04T21:32:25.745Z,68.90
2018-05-04T21:34:53.297Z,70.40
2018-05-04T21:37:20.825Z,70.30
2018-05-04T21:39:48.325Z,70.00
2018-05-04T21:42:15.852Z,70.60
2018-05-04T21:44:43.391Z,69.90
2018-05-04T21:47:11.638Z,70.00
2018-05-04T21:49:39.920Z,69.40
2018-05-04T21:52:08.230Z,70.20
2018-05-04T21:54:35.742Z,70.20
2018-05-04T21:57:04.047Z,71.10
2018-05-04T21:59:31.613Z,71.00
2018-05-04T22:01:59.149Z,70.70
2018-05-04T22:04:27.449Z,70.90
2018-05-04T22:06:54.994Z,70.90
2018-05-04T22:09:22.507Z,70.30
2018-05-04T22:11:50.026Z,70.80
2018-05-04T22:14:17.567Z,71.80
2018-05-04T22:16:45.085Z,71.50
2018-05-04T22:19:12.597Z,71.50
2018-05-04T22:21:40.123Z,72.10
2018-05-04T22:24:07.686Z,71.70
2018-05-04T22:26:36.070Z,72.30
2018-05-04T22:29:04.279Z,72.30
2018-05-04T22:31:31.784Z,72.20
2018-05-04T22:33:59.290Z,72.50
2018-05-04T22:36:26.806Z,71.90
2018-05-04T22:38:54.332Z,72.10
2018-05-04T22:41:21.861Z,71.70
2018-05-04T22:43:49.394Z,71.30
2018-05-04T22:46:17.674Z,71.00
2018-05-04T22:48:45.958Z,70.20
2018-05-04T22:51:13.522Z,70.10
2018-05-04T22:53:41.093Z,70.90
2018-05-04T22:56:08.628Z,70.20
2018-05-04T22:58:36.162Z,69.10
2018-05-04T23:01:03.671Z,69.50
2018-05-04T23:03:31.203Z,69.30
2018-05-04T23:05:59.492Z,69.90
2018-05-04T23:08:27.020Z,69.90
2018-05-04T23:10:54.550Z,70.30
2018-05-04T23:13:22.077Z,70.10
2018-05-04T23:15:49.582Z,70.30
2018-05-04T23:18:17.123Z,69.80
2018-05-04T23:20:44.666Z,69.20
2018-05-04T23:23:12.234Z,68.20
2018-05-04T23:25:39.733Z,67.50
2018-05-04T23:28:07.237Z,67.40
2018-05-04T23:30:34.750Z,67.10
2018-05-04T23:33:02.288Z,67.20
2018-05-04T23:35:29.817Z,66.50
2018-05-04T23:37:58.105Z,66.40
2018-05-04T23:40:25.628Z,66.40
2018-05-04T23:42:53.895Z,66.50
2018-05-04T23:45:22.176Z,66.50
2018-05-04T23:47:50.486Z,66.70
2018-05-04T23:50:17.988Z,66.70
2018-05-04T23:52:45.548Z,66.90
2018-05-04T23:55:13.082Z,66.90
2018-05-04T23:57:40.589Z,66.90
